createdAt,value
2022-07-30T00:00:26.124Z,4.00
2022-07-30T00:02:58.310Z,3.73
2022-07-30T00:05:30.620Z,4.30
2022-07-30T00:08:03.125Z,4.70
2022-07-30T00:10:35.429Z,4.37
2022-07-30T00:13:08.271Z,4.43
2022-07-30T00:15:40.654Z,4.43
2022-07-30T00:18:13.395Z,4.40
2022-07-30T00:20:45.547Z,4.97
2022-07-30T00:23:18.189Z,4.27
2022-07-30T00:25:50.418Z,4.30
2022-07-30T00:28:22.650Z,4.57
2022-07-30T00:30:54.958Z,4.20
2022-07-30T00:33:28.725Z,4.47
2022-07-30T00:36:01.042Z,4.27
2022-07-30T00:38:33.271Z,5.20
2022-07-30T00:41:05.482Z,4.77
2022-07-30T00:43:37.840Z,3.97
2022-07-30T00:46:10.501Z,4.90
2022-07-30T00:48:43.330Z,5.07
2022-07-30T00:51:15.810Z,4.40
2022-07-30T00:53:48.280Z,4.70
2022-07-30T00:56:20.468Z,4.87
2022-07-30T00:58:52.677Z,4.23
2022-07-30T01:01:24.972Z,4.40
2022-07-30T01:03:57.585Z,4.10
2022-07-30T01:06:29.965Z,4.60
2022-07-30T01:09:02.272Z,4.27
2022-07-30T01:11:37.932Z,3.87
2022-07-30T01:14:10.418Z,5.00
2022-07-30T01:16:43.366Z,4.00
2022-07-30T01:19:40.443Z,4.27
2022-07-30T01:22:19.608Z,4.60
2022-07-30T01:25:03.717Z,6.50
2022-07-30T01:27:42.229Z,5.03
2022-07-30T01:30:18.047Z,4.90
2022-07-30T01:32:51.593Z,4.30
2022-07-30T01:35:25.734Z,4.43
2022-07-30T01:38:01.002Z,4.77
2022-07-30T01:40:34.298Z,4.93
2022-07-30T01:43:09.203Z,4.80
2022-07-30T01:45:44.309Z,4.47
2022-07-30T01:48:20.487Z,4.50
2022-07-30T01:50:55.859Z,5.10
2022-07-30T01:53:30.417Z,4.77
2022-07-30T01:56:03.597Z,5.07
2022-07-30T01:58:38.004Z,4.23
2022-07-30T02:01:30.965Z,4.40
2022-07-30T02:04:06.035Z,4.43
2022-07-30T02:06:43.838Z,4.93
2022-07-30T02:09:23.433Z,4.60
2022-07-30T02:12:15.346Z,4.60
2022-07-30T02:14:58.407Z,5.23
2022-07-30T02:17:45.211Z,4.93
2022-07-30T02:20:18.955Z,4.60
2022-07-30T02:23:02.335Z,4.33
2022-07-30T02:25:36.385Z,4.90
2022-07-30T02:28:11.768Z,4.60
2022-07-30T02:30:51.741Z,4.80
2022-07-30T02:33:31.408Z,5.00
2022-07-30T02:36:11.277Z,4.30
2022-07-30T02:38:44.275Z,4.33
2022-07-30T02:41:20.199Z,4.70
2022-07-30T02:43:54.388Z,4.67
2022-07-30T02:46:28.120Z,4.40
2022-07-30T02:49:20.477Z,4.53
2022-07-30T02:51:54.815Z,4.57
2022-07-30T02:54:31.267Z,4.60
2022-07-30T02:57:04.842Z,4.37
2022-07-30T02:59:40.612Z,4.73
2022-07-30T03:02:14.718Z,4.87
2022-07-30T03:04:49.139Z,4.13
2022-07-30T03:07:22.372Z,4.77
2022-07-30T03:09:56.412Z,4.90
2022-07-30T03:12:31.496Z,4.80
2022-07-30T03:15:04.205Z,4.80
2022-07-30T03:17:43.336Z,4.70
2022-07-30T03:20:19.108Z,4.73
2022-07-30T03:22:53.488Z,4.50
2022-07-30T03:25:28.651Z,5.50
2022-07-30T03:28:02.260Z,4.50
2022-07-30T03:30:34.794Z,4.90
2022-07-30T03:33:07.152Z,4.87
2022-07-30T03:35:39.973Z,4.67
2022-07-30T03:38:13.477Z,4.60
2022-07-30T03:40:46.576Z,4.40
2022-07-30T03:43:33.578Z,4.93
2022-07-30T03:46:08.251Z,4.97
2022-07-30T03:48:45.091Z,5.10
2022-07-30T03:51:18.290Z,5.07
2022-07-30T03:53:51.854Z,4.90
2022-07-30T03:57:04.732Z,4.67
2022-07-30T03:59:46.746Z,4.30
2022-07-30T04:02:19.129Z,4.50
2022-07-30T04:05:00.408Z,4.17
2022-07-30T04:07:32.669Z,4.73
2022-07-30T04:10:06.456Z,4.03
2022-07-30T04:13:11.220Z,4.67
2022-07-30T04:16:37.179Z,4.50
2022-07-30T04:18:56.781Z,4.30
2022-07-30T04:21:30.239Z,3.90
2022-07-30T04:24:04.622Z,4.50
2022-07-30T04:26:38.705Z,3.90
2022-07-30T04:29:17.301Z,4.30
2022-07-30T04:31:52.302Z,4.90
2022-07-30T04:35:00.778Z,4.50
2022-07-30T04:37:56.516Z,4.37
2022-07-30T04:40:30.107Z,4.17
2022-07-30T04:43:02.424Z,4.80
2022-07-30T04:45:35.414Z,4.40
2022-07-30T04:48:10.618Z,5.27
2022-07-30T04:50:58.511Z,3.90
2022-07-30T04:53:31.652Z,4.60
2022-07-30T04:56:06.366Z,4.47
2022-07-30T04:58:41.681Z,4.50
2022-07-30T05:01:40.021Z,3.90
2022-07-30T05:04:14.346Z,4.67
2022-07-30T05:06:47.810Z,4.17
2022-07-30T05:09:20.612Z,4.67
2022-07-30T05:11:54.233Z,4.53
2022-07-30T05:14:27.134Z,4.27
2022-07-30T05:17:00.445Z,4.73
2022-07-30T05:19:34.142Z,4.60
2022-07-30T05:22:06.905Z,4.50
2022-07-30T05:24:39.850Z,4.70
2022-07-30T05:27:12.885Z,4.90
2022-07-30T05:29:45.475Z,3.83
2022-07-30T05:32:25.664Z,4.23
2022-07-30T05:34:59.592Z,4.93
2022-07-30T05:37:33.686Z,4.27
2022-07-30T05:40:06.770Z,4.20
2022-07-30T05:43:17.623Z,4.23
2022-07-30T05:45:50.109Z,4.53
2022-07-30T05:48:22.430Z,4.57
2022-07-30T05:50:54.751Z,4.97
2022-07-30T05:53:28.401Z,4.57
2022-07-30T05:56:33.475Z,4.50
2022-07-30T05:59:25.299Z,4.30
2022-07-30T06:02:14.619Z,3.73
2022-07-30T06:05:05.763Z,3.83
2022-07-30T06:07:38.972Z,6.83
2022-07-30T06:10:11.907Z,4.70
2022-07-30T06:12:47.231Z,6.90
2022-07-30T06:15:25.813Z,5.10
2022-07-30T06:18:02.191Z,8.07
2022-07-30T06:20:55.829Z,4.50
2022-07-30T06:23:51.665Z,4.40
2022-07-30T06:26:35.352Z,4.70
2022-07-30T06:29:08.372Z,4.27
2022-07-30T06:31:41.660Z,4.00
2022-07-30T06:34:16.561Z,4.00
2022-07-30T06:36:49.790Z,5.87
2022-07-30T06:39:56.282Z,5.07
2022-07-30T06:42:23.599Z,4.70
2022-07-30T06:45:14.678Z,4.10
2022-07-30T06:48:05.942Z,4.80
2022-07-30T06:50:38.382Z,4.00
2022-07-30T06:53:11.943Z,4.20
2022-07-30T06:56:14.033Z,4.87
2022-07-30T06:59:12.918Z,5.43
2022-07-30T07:02:00.410Z,6.00
2022-07-30T07:04:36.359Z,4.60
2022-07-30T07:07:12.482Z,5.23
2022-07-30T07:09:46.567Z,4.90
2022-07-30T07:12:39.019Z,4.33
2022-07-30T07:15:11.857Z,4.97
2022-07-30T07:17:44.195Z,5.73
2022-07-30T07:20:36.750Z,4.77
2022-07-30T07:23:12.025Z,5.07
2022-07-30T07:25:46.372Z,5.03
2022-07-30T07:28:19.273Z,5.50
2022-07-30T07:30:51.860Z,5.67
2022-07-30T07:33:24.354Z,6.00
2022-07-30T07:35:56.674Z,4.90
2022-07-30T07:38:33.507Z,5.27
2022-07-30T07:41:05.846Z,6.33
2022-07-30T07:43:40.534Z,4.60
2022-07-30T07:46:16.775Z,5.10
2022-07-30T07:49:06.870Z,5.87
2022-07-30T07:51:48.015Z,6.57
2022-07-30T07:54:23.636Z,5.47
2022-07-30T07:56:59.175Z,5.33
2022-07-30T07:59:42.529Z,5.57
2022-07-30T08:02:20.337Z,6.20
2022-07-30T08:05:07.845Z,6.10
2022-07-30T08:07:56.660Z,5.57
2022-07-30T08:10:47.956Z,6.20
2022-07-30T08:13:55.692Z,6.73
2022-07-30T08:16:46.514Z,6.50
2022-07-30T08:19:45.002Z,6.27
2022-07-30T08:22:23.006Z,6.93
2022-07-30T08:24:55.686Z,8.10
2022-07-30T08:27:28.007Z,7.87
2022-07-30T08:30:08.678Z,8.20
2022-07-30T08:32:41.009Z,6.80
2022-07-30T08:35:14.587Z,7.20
2022-07-30T08:37:46.886Z,7.37
2022-07-30T08:40:21.019Z,10.37
2022-07-30T08:43:04.851Z,9.67
2022-07-30T08:45:39.537Z,6.70
2022-07-30T08:48:27.273Z,6.50
2022-07-30T08:51:01.326Z,8.70
2022-07-30T08:53:40.167Z,8.20
2022-07-30T08:56:12.934Z,7.30
2022-07-30T08:58:45.973Z,8.10
2022-07-30T09:01:18.557Z,8.43
2022-07-30T09:03:51.272Z,7.20
2022-07-30T09:06:23.802Z,9.10
2022-07-30T09:08:56.659Z,8.70
2022-07-30T09:11:29.352Z,7.47
2022-07-30T09:14:13.494Z,7.50
2022-07-30T09:16:46.442Z,6.33
2022-07-30T09:19:21.848Z,6.93
2022-07-30T09:21:56.897Z,7.43
2022-07-30T09:24:44.585Z,7.77
2022-07-30T09:27:50.044Z,6.90
2022-07-30T09:30:52.417Z,7.53
2022-07-30T09:33:44.848Z,5.83
2022-07-30T09:36:42.869Z,7.40
2022-07-30T09:39:33.078Z,7.43
2022-07-30T09:42:22.963Z,6.13
2022-07-30T09:45:14.355Z,7.43
2022-07-30T09:47:50.512Z,7.10
2022-07-30T09:50:30.457Z,7.27
2022-07-30T09:53:09.851Z,7.20
2022-07-30T09:55:47.795Z,6.70
2022-07-30T09:58:27.183Z,6.83
2022-07-30T10:01:02.596Z,7.93
2022-07-30T10:03:53.581Z,6.17
2022-07-30T10:06:38.254Z,6.87
2022-07-30T10:09:37.296Z,5.80
2022-07-30T10:12:11.550Z,7.17
2022-07-30T10:14:47.951Z,5.97
2022-07-30T10:17:23.614Z,6.40
2022-07-30T10:20:37.393Z,6.37
2022-07-30T10:23:32.722Z,6.30
2022-07-30T10:26:24.222Z,5.83
2022-07-30T10:29:23.352Z,5.87
2022-07-30T10:32:06.735Z,6.57
2022-07-30T10:34:42.947Z,6.40
2022-07-30T10:37:16.814Z,6.47
2022-07-30T10:39:50.819Z,6.97
2022-07-30T10:42:34.468Z,5.70
2022-07-30T10:45:19.809Z,7.00
2022-07-30T10:47:53.520Z,7.60
2022-07-30T10:50:29.362Z,6.37
2022-07-30T10:53:02.195Z,7.17
2022-07-30T10:55:38.847Z,6.10
2022-07-30T10:58:15.483Z,6.33
2022-07-30T11:00:54.087Z,5.93
2022-07-30T11:03:40.722Z,6.40
2022-07-30T11:06:24.249Z,7.60
2022-07-30T11:08:58.119Z,6.83
2022-07-30T11:12:05.861Z,6.13
2022-07-30T11:14:47.165Z,6.57
2022-07-30T11:17:19.914Z,6.30
2022-07-30T11:20:11.993Z,6.37
2022-07-30T11:22:45.224Z,8.30
2022-07-30T11:25:50.400Z,7.40
2022-07-30T11:28:43.263Z,6.97
2022-07-30T11:31:55.855Z,5.93
2022-07-30T11:34:29.873Z,5.97
2022-07-30T11:37:21.748Z,5.90
2022-07-30T11:40:04.298Z,5.90
2022-07-30T11:42:39.110Z,5.87
2022-07-30T11:45:18.112Z,7.53
2022-07-30T11:47:52.985Z,5.30
2022-07-30T11:50:32.474Z,5.00
2022-07-30T11:53:10.299Z,5.90
2022-07-30T11:55:45.303Z,6.53
2022-07-30T11:58:26.209Z,5.47
2022-07-30T12:01:09.023Z,5.90
2022-07-30T12:03:45.493Z,7.27
2022-07-30T12:06:18.396Z,5.90
2022-07-30T12:08:58.144Z,6.30
2022-07-30T12:11:35.524Z,6.00
2022-07-30T12:14:07.998Z,6.17
2022-07-30T12:16:42.605Z,6.53
2022-07-30T12:19:15.154Z,6.83
2022-07-30T12:21:52.772Z,6.43
2022-07-30T12:24:26.870Z,5.80
2022-07-30T12:27:06.508Z,5.80
2022-07-30T12:29:39.156Z,7.37
2022-07-30T12:32:11.512Z,6.20
2022-07-30T12:34:55.002Z,6.00
2022-07-30T12:37:27.530Z,5.87
2022-07-30T12:40:14.660Z,6.23
2022-07-30T12:42:53.785Z,6.00
2022-07-30T12:45:51.734Z,5.73
2022-07-30T12:48:26.345Z,5.57
2022-07-30T12:51:10.936Z,12.10
2022-07-30T12:53:43.271Z,6.83
2022-07-30T12:56:21.296Z,8.97
2022-07-30T12:58:55.182Z,6.63
2022-07-30T13:01:44.836Z,5.50
2022-07-30T13:04:17.238Z,5.37
2022-07-30T13:07:11.243Z,6.13
2022-07-30T13:09:43.940Z,5.90
2022-07-30T13:12:19.026Z,6.70
2022-07-30T13:14:51.498Z,5.10
2022-07-30T13:17:23.855Z,5.07
2022-07-30T13:19:56.185Z,5.80
2022-07-30T13:22:28.396Z,5.80
2022-07-30T13:25:00.691Z,5.33
2022-07-30T13:27:33.042Z,6.20
2022-07-30T13:30:06.078Z,5.67
2022-07-30T13:32:39.280Z,6.40
2022-07-30T13:35:11.632Z,5.90
2022-07-30T13:37:43.825Z,7.30
2022-07-30T13:40:16.272Z,5.40
2022-07-30T13:42:48.857Z,5.60
2022-07-30T13:45:21.374Z,5.87
2022-07-30T13:47:55.442Z,5.17
2022-07-30T13:50:27.873Z,7.97
2022-07-30T13:53:02.592Z,6.63
2022-07-30T13:55:36.581Z,6.77
2022-07-30T13:58:09.789Z,5.93
2022-07-30T14:00:45.346Z,6.10
2022-07-30T14:03:18.382Z,5.50
2022-07-30T14:05:50.926Z,7.10
2022-07-30T14:08:23.331Z,6.00
2022-07-30T14:10:55.730Z,6.13
2022-07-30T14:13:28.838Z,6.33
2022-07-30T14:16:01.808Z,6.03
2022-07-30T14:18:34.829Z,4.73
2022-07-30T14:21:07.465Z,6.07
2022-07-30T14:23:40.126Z,5.83
2022-07-30T14:26:12.819Z,4.97
2022-07-30T14:28:45.766Z,5.33
2022-07-30T14:31:18.038Z,5.77
2022-07-30T14:33:50.376Z,6.93
2022-07-30T14:36:22.849Z,5.50
2022-07-30T14:38:56.688Z,5.00
2022-07-30T14:41:29.219Z,5.30
2022-07-30T14:44:02.701Z,5.00
2022-07-30T14:46:35.068Z,5.10
2022-07-30T14:49:09.066Z,5.20
2022-07-30T14:51:41.936Z,4.90
2022-07-30T14:54:14.535Z,4.13
2022-07-30T14:56:47.029Z,5.13
2022-07-30T14:59:19.521Z,5.03
2022-07-30T15:01:52.741Z,5.47
2022-07-30T15:04:25.699Z,5.00
2022-07-30T15:06:58.357Z,4.70
2022-07-30T15:09:31.535Z,4.33
2022-07-30T15:12:08.598Z,5.30
2022-07-30T15:14:42.503Z,5.87
2022-07-30T15:17:16.209Z,5.40
2022-07-30T15:19:50.575Z,5.77
2022-07-30T15:22:23.393Z,5.93
2022-07-30T15:24:56.137Z,5.03
2022-07-30T15:27:34.091Z,5.67
2022-07-30T15:30:07.098Z,5.90
2022-07-30T15:32:40.170Z,5.53
2022-07-30T15:35:14.046Z,7.60
2022-07-30T15:37:47.295Z,6.10
2022-07-30T15:40:19.669Z,6.20
2022-07-30T15:42:52.513Z,5.90
2022-07-30T15:45:25.170Z,5.27
2022-07-30T15:47:57.605Z,6.30
2022-07-30T15:50:29.948Z,5.70
2022-07-30T15:53:06.711Z,6.60
2022-07-30T15:55:47.291Z,5.17
2022-07-30T15:58:19.756Z,5.40
2022-07-30T16:00:52.235Z,4.63
2022-07-30T16:03:24.581Z,5.67
2022-07-30T16:05:56.888Z,5.00
2022-07-30T16:08:29.283Z,4.70
2022-07-30T16:11:04.426Z,5.10
2022-07-30T16:13:36.770Z,7.60
2022-07-30T16:16:09.011Z,4.90
2022-07-30T16:18:41.899Z,5.10
2022-07-30T16:21:14.282Z,5.00
2022-07-30T16:23:46.610Z,5.87
2022-07-30T16:26:19.929Z,4.40
2022-07-30T16:28:52.482Z,5.03
2022-07-30T16:31:25.405Z,5.97
2022-07-30T16:33:58.011Z,5.30
2022-07-30T16:36:30.334Z,5.90
2022-07-30T16:39:02.737Z,6.07
2022-07-30T16:41:35.030Z,6.57
2022-07-30T16:44:07.577Z,8.20
2022-07-30T16:46:42.731Z,6.70
2022-07-30T16:49:14.964Z,5.97
2022-07-30T16:51:47.400Z,8.20
2022-07-30T16:54:20.958Z,6.40
2022-07-30T16:56:53.242Z,7.17
2022-07-30T16:59:25.890Z,5.97
2022-07-30T17:01:58.355Z,5.80
2022-07-30T17:04:30.671Z,5.40
2022-07-30T17:07:03.108Z,8.40
2022-07-30T17:09:36.546Z,7.57
2022-07-30T17:12:12.037Z,7.20
2022-07-30T17:14:44.591Z,7.17
2022-07-30T17:17:17.322Z,6.23
2022-07-30T17:19:49.771Z,6.70
2022-07-30T17:22:22.099Z,6.50
2022-07-30T17:24:54.798Z,6.30
2022-07-30T17:27:28.756Z,6.50
2022-07-30T17:30:01.946Z,7.20
2022-07-30T17:32:34.453Z,6.37
2022-07-30T17:35:09.836Z,7.13
2022-07-30T17:37:45.805Z,5.90
2022-07-30T17:40:28.989Z,7.37
2022-07-30T17:43:07.401Z,7.40
2022-07-30T17:45:39.448Z,7.90
2022-07-30T17:48:11.312Z,7.73
2022-07-30T17:50:44.009Z,7.50
2022-07-30T17:53:18.263Z,7.67
2022-07-30T17:55:56.994Z,6.77
2022-07-30T17:58:30.082Z,7.50
2022-07-30T18:01:03.817Z,7.83
2022-07-30T18:03:35.894Z,7.70
2022-07-30T18:06:08.094Z,7.33
2022-07-30T18:08:40.174Z,8.13
2022-07-30T18:11:13.944Z,7.80
2022-07-30T18:13:46.102Z,8.30
2022-07-30T18:16:18.251Z,8.57
2022-07-30T18:18:50.357Z,8.83
2022-07-30T18:21:22.389Z,8.33
2022-07-30T18:23:54.521Z,8.03
2022-07-30T18:26:27.886Z,8.27
2022-07-30T18:28:59.981Z,8.67
2022-07-30T18:31:32.414Z,9.10
2022-07-30T18:34:04.544Z,7.53
2022-07-30T18:36:36.464Z,9.13
2022-07-30T18:39:08.551Z,7.43
2022-07-30T18:41:40.545Z,8.30
2022-07-30T18:44:12.514Z,8.67
2022-07-30T18:46:44.434Z,6.47
2022-07-30T18:49:35.641Z,7.87
2022-07-30T18:52:08.590Z,8.80
2022-07-30T18:54:40.567Z,7.40
2022-07-30T18:57:14.478Z,8.27
2022-07-30T18:59:46.945Z,7.27
2022-07-30T19:02:19.009Z,7.30
2022-07-30T19:04:52.375Z,9.40
2022-07-30T19:07:48.143Z,7.90
2022-07-30T19:11:05.484Z,8.23
2022-07-30T19:13:46.986Z,8.50
2022-07-30T19:16:46.424Z,7.13
2022-07-30T19:19:50.686Z,7.87
2022-07-30T19:22:42.635Z,8.17
2022-07-30T19:25:26.920Z,7.57
2022-07-30T19:31:05.748Z,8.60
2022-07-30T19:33:52.239Z,8.00
2022-07-30T19:36:35.567Z,7.70
2022-07-30T19:39:21.576Z,7.13
2022-07-30T19:42:12.820Z,6.93
2022-07-30T19:44:54.098Z,7.10
2022-07-30T19:48:05.795Z,6.00
2022-07-30T19:50:54.814Z,6.57
2022-07-30T19:53:43.672Z,5.97
2022-07-30T19:56:37.778Z,5.70
2022-07-30T19:59:45.244Z,6.67
2022-07-30T20:02:37.421Z,8.23
2022-07-30T20:05:24.861Z,6.20
2022-07-30T20:08:24.863Z,6.67
2022-07-30T20:10:59.300Z,5.73
2022-07-30T20:13:45.214Z,7.70
2022-07-30T20:16:19.085Z,6.77
2022-07-30T20:18:52.513Z,7.57
2022-07-30T20:21:56.286Z,6.57
2022-07-30T20:24:17.754Z,7.50
2022-07-30T20:26:49.881Z,7.50
2022-07-30T20:29:21.833Z,7.53
2022-07-30T20:31:54.942Z,6.63
2022-07-30T20:34:27.571Z,6.80
2022-07-30T20:36:59.572Z,6.40
2022-07-30T20:39:47.832Z,7.63
2022-07-30T20:42:21.872Z,7.87
2022-07-30T20:44:57.040Z,7.23
2022-07-30T20:47:37.476Z,7.70
2022-07-30T20:50:12.165Z,7.47
2022-07-30T20:52:48.084Z,6.83
2022-07-30T20:55:22.013Z,10.07
2022-07-30T20:57:59.377Z,10.70
2022-07-30T21:00:41.788Z,10.10
2022-07-30T21:03:14.155Z,12.07
2022-07-30T21:05:46.732Z,12.83
2022-07-30T21:08:18.708Z,14.23
2022-07-30T21:10:51.897Z,16.70
2022-07-30T21:13:26.177Z,18.60
2022-07-30T21:16:02.943Z,17.27
2022-07-30T21:18:35.686Z,16.43
2022-07-30T21:21:07.577Z,19.53
2022-07-30T21:23:43.342Z,20.70
2022-07-30T21:26:15.186Z,22.00
2022-07-30T21:28:47.014Z,21.30
2022-07-30T21:31:19.637Z,21.50
2022-07-30T21:34:11.467Z,28.23
2022-07-30T21:36:43.772Z,28.63
2022-07-30T21:39:15.751Z,34.30
2022-07-30T21:41:47.562Z,31.30
2022-07-30T21:44:19.458Z,30.57
2022-07-30T21:46:51.971Z,29.47
2022-07-30T21:49:23.954Z,28.87
2022-07-30T21:51:55.802Z,28.67
2022-07-30T21:54:28.551Z,67.30
2022-07-30T21:57:01.410Z,94.70
2022-07-30T21:59:33.402Z,75.57
2022-07-30T22:02:05.487Z,103.77
2022-07-30T22:04:50.497Z,98.50
2022-07-30T22:07:22.639Z,79.13
2022-07-30T22:09:54.663Z,94.63
2022-07-30T22:12:29.027Z,75.60
2022-07-30T22:15:04.119Z,66.53
2022-07-30T22:17:58.847Z,81.67
2022-07-30T22:20:31.068Z,58.40
2022-07-30T22:23:04.501Z,40.87
2022-07-30T22:25:43.844Z,42.73
2022-07-30T22:28:17.032Z,32.07
2022-07-30T22:30:48.942Z,27.90
2022-07-30T22:33:21.145Z,22.73
2022-07-30T22:35:53.122Z,29.43
2022-07-30T22:38:27.172Z,49.40
2022-07-30T22:40:59.062Z,36.77
2022-07-30T22:43:35.509Z,29.77
2022-07-30T22:46:14.727Z,32.80
2022-07-30T22:49:01.885Z,32.20
2022-07-30T22:51:58.812Z,25.03
2022-07-30T22:54:26.430Z,26.47
2022-07-30T22:57:03.823Z,22.33
2022-07-30T22:59:59.937Z,20.07
2022-07-30T23:02:28.144Z,24.57
2022-07-30T23:05:00.059Z,20.43
2022-07-30T23:07:39.941Z,17.90
2022-07-30T23:10:17.975Z,17.10
2022-07-30T23:12:51.910Z,17.20
2022-07-30T23:15:24.578Z,16.20
2022-07-30T23:17:56.899Z,17.17
2022-07-30T23:20:29.133Z,15.07
2022-07-30T23:23:01.595Z,20.60
2022-07-30T23:25:38.470Z,14.50
2022-07-30T23:28:11.568Z,17.30
2022-07-30T23:30:43.545Z,23.10
2022-07-30T23:33:17.862Z,25.03
2022-07-30T23:35:50.842Z,41.37
2022-07-30T23:38:23.628Z,66.13
2022-07-30T23:41:01.095Z,74.97
2022-07-30T23:43:33.953Z,60.57
2022-07-30T23:46:06.243Z,64.27
2022-07-30T23:48:43.182Z,46.27
2022-07-30T23:51:15.055Z,38.40
2022-07-30T23:53:47.151Z,31.70
2022-07-30T23:56:19.049Z,29.20
2022-07-30T23:58:52.166Z,22.67
